Accueil
METAR-TAF:

METAR-TAF

Aéroports :

Aéroport de Fuerteventura

Fuerteventura, Espagne

latitude: 28-27N, longitude: 013-52W, altitude: 22 m

Observation

Le bulletin a été fait il y a 43 minutes, à 14:00 UTC
Vent 10 kt de est/nord-est
Température 25°C
Humidité 65%
Pression 1017 hPa
Visibilité 10 km ou plus
Quelques nuages à une hauteur de 2500 ft

METAR: GCFV 251400Z 06010KT 9999 FEW025 25/18 Q1017

Heure: 15:43 (14:43 UTC)

Prévision

Le bulletin a été fait il y a 43 minutes, à 14:00 UTC
Prévision valable du 25 à 15 UTC au 26 à 15 UTC
Vent 10 kt de nord-est
Visibilité 10 km ou plus
Quelques nuages à une hauteur de 3000 ft
Evoluant progressivement
du 25 à 20 UTC au 25 à 22 UTC
Vent 9 kt de nord
Evoluant progressivement
du 26 à 09 UTC au 26 à 11 UTC
Vent 12 kt de nord-est

TAF: GCFV 251400Z 2515/2615 05010KT 9999 FEW030 TX25/2614Z TN21/2606Z BECMG 2520/2522 35009KT BECMG 2609/2611 05012KT

Observations et prévisions météorologiques de plus de 4000 aéroports (messages METAR et TAF).

Les stations disponibles sont représentées par des disques jaunes et rouges sur la carte.

Passer la souris dessus pour voir le nom de la station.

Cliquer dessus pour voir les observations et prévisions météorologiques.

Pour changer de carte: cliquez sur les boutons verts avec une croix noire pour zoomer, sur le bouton vert avec un tiret pour effectuer un zoom arrière, ou sur les flèches vertes pour les cartes adjacentes.


METAR-TAF: